Terminal Aerodrome Forecast
Issued by NWS

Home | Current Version | Previous Version | Text Only | Print | Product List | Glossary On
Versions: 1 2 3 4 5 6 7 8 9 10 11 12 13 14 15 16 17 18 19 20 21 22 23 24 25 26
115
FTUS43 KDLH 182338
TAFHIB
TAF
KHIB 182338Z 1900/1924 18005KT P6SM OVC025
     FM190300 16005KT P6SM BKN015
     FM190700 16004KT 4SM BR BKN008
     FM191400 14006KT P6SM BKN015
     FM191900 15015G25KT P6SM BKN040=

USA.gov is the U.S. government's official web portal to all federal, state and local government web resources and services.